sensor_id;sensor_type;location;lat;lon;timestamp;pressure;altitude;pressure_sealevel;temperature;humidity
62789;BME280;66401;42.016;21.454;2023-02-10T00:01:05;100104.78;;;-2.41;56.15
62789;BME280;66401;42.016;21.454;2023-02-10T00:03:32;100119.75;;;-2.54;56.47
62789;BME280;66401;42.016;21.454;2023-02-10T00:05:57;100110.94;;;-2.67;56.85
62789;BME280;66401;42.016;21.454;2023-02-10T00:08:23;100109.47;;;-2.73;56.64
62789;BME280;66401;42.016;21.454;2023-02-10T00:10:48;100105.00;;;-2.88;57.36
62789;BME280;66401;42.016;21.454;2023-02-10T00:13:14;100103.59;;;-2.95;57.55
62789;BME280;66401;42.016;21.454;2023-02-10T00:15:39;100099.25;;;-2.93;57.64
62789;BME280;66401;42.016;21.454;2023-02-10T00:18:05;100112.09;;;-3.17;58.46
62789;BME280;66401;42.016;21.454;2023-02-10T00:20:33;100107.69;;;-3.13;57.65
62789;BME280;66401;42.016;21.454;2023-02-10T00:22:59;100109.97;;;-2.85;56.83
62789;BME280;66401;42.016;21.454;2023-02-10T00:25:25;100097.78;;;-2.99;57.46
62789;BME280;66401;42.016;21.454;2023-02-10T00:27:50;100080.22;;;-3.27;57.72
62789;BME280;66401;42.016;21.454;2023-02-10T00:30:19;100099.81;;;-3.29;58.77
62789;BME280;66401;42.016;21.454;2023-02-10T00:32:45;100097.78;;;-3.21;58.29
62789;BME280;66401;42.016;21.454;2023-02-10T00:35:10;100105.56;;;-3.24;58.72
62789;BME280;66401;42.016;21.454;2023-02-10T00:37:36;100107.41;;;-3.27;58.24
62789;BME280;66401;42.016;21.454;2023-02-10T00:40:01;100112.16;;;-3.18;58.18
62789;BME280;66401;42.016;21.454;2023-02-10T00:42:27;100115.56;;;-3.41;59.24
62789;BME280;66401;42.016;21.454;2023-02-10T00:44:52;100108.59;;;-3.36;59.30
62789;BME280;66401;42.016;21.454;2023-02-10T00:47:18;100096.25;;;-3.25;59.40
62789;BME280;66401;42.016;21.454;2023-02-10T00:49:44;100103.50;;;-3.36;59.45
62789;BME280;66401;42.016;21.454;2023-02-10T00:52:09;100107.97;;;-3.21;58.45
62789;BME280;66401;42.016;21.454;2023-02-10T00:54:35;100104.19;;;-3.32;59.13
62789;BME280;66401;42.016;21.454;2023-02-10T00:57:00;100103.78;;;-3.43;58.69
62789;BME280;66401;42.016;21.454;2023-02-10T00:59:26;100092.59;;;-3.18;58.29
62789;BME280;66401;42.016;21.454;2023-02-10T01:01:52;100098.97;;;-3.29;58.30
62789;BME280;66401;42.016;21.454;2023-02-10T01:04:17;100093.75;;;-3.48;58.64
62789;BME280;66401;42.016;21.454;2023-02-10T01:06:43;100095.84;;;-3.36;58.28
62789;BME280;66401;42.016;21.454;2023-02-10T01:09:08;100090.44;;;-3.50;59.64
62789;BME280;66401;42.016;21.454;2023-02-10T01:11:34;100072.41;;;-3.67;59.76
62789;BME280;66401;42.016;21.454;2023-02-10T01:13:59;100066.84;;;-3.77;59.64
62789;BME280;66401;42.016;21.454;2023-02-10T01:16:25;100093.13;;;-3.77;61.10
62789;BME280;66401;42.016;21.454;2023-02-10T01:18:50;100092.31;;;-3.77;60.43
62789;BME280;66401;42.016;21.454;2023-02-10T01:21:18;100097.53;;;-3.80;60.94
62789;BME280;66401;42.016;21.454;2023-02-10T01:23:44;100092.69;;;-3.64;59.61
62789;BME280;66401;42.016;21.454;2023-02-10T01:26:11;100085.59;;;-3.56;59.82
62789;BME280;66401;42.016;21.454;2023-02-10T01:28:37;100095.00;;;-3.58;59.95
62789;BME280;66401;42.016;21.454;2023-02-10T01:31:08;100082.72;;;-3.70;60.73
62789;BME280;66401;42.016;21.454;2023-02-10T01:33:34;100094.09;;;-3.79;60.62
62789;BME280;66401;42.016;21.454;2023-02-10T01:36:07;100100.16;;;-3.60;60.10
62789;BME280;66401;42.016;21.454;2023-02-10T01:38:33;100083.44;;;-3.67;60.17
62789;BME280;66401;42.016;21.454;2023-02-10T01:40:59;100092.44;;;-3.80;59.86
62789;BME280;66401;42.016;21.454;2023-02-10T01:43:25;100087.63;;;-3.88;60.62
62789;BME280;66401;42.016;21.454;2023-02-10T01:45:50;100098.34;;;-3.80;60.61
62789;BME280;66401;42.016;21.454;2023-02-10T01:48:16;100092.38;;;-3.79;61.19
62789;BME280;66401;42.016;21.454;2023-02-10T01:50:53;100094.22;;;-3.82;60.86
62789;BME280;66401;42.016;21.454;2023-02-10T01:53:21;100092.13;;;-3.94;61.76
62789;BME280;66401;42.016;21.454;2023-02-10T01:55:49;100094.28;;;-3.84;61.86
62789;BME280;66401;42.016;21.454;2023-02-10T01:58:18;100096.13;;;-3.89;60.91
62789;BME280;66401;42.016;21.454;2023-02-10T02:00:45;100092.69;;;-3.88;61.62
62789;BME280;66401;42.016;21.454;2023-02-10T02:03:11;100086.63;;;-3.84;60.94
62789;BME280;66401;42.016;21.454;2023-02-10T02:05:39;100085.94;;;-3.65;60.83
62789;BME280;66401;42.016;21.454;2023-02-10T02:08:26;100090.91;;;-3.62;60.70
62789;BME280;66401;42.016;21.454;2023-02-10T02:24:36;100085.69;;;-3.59;60.20
62789;BME280;66401;42.016;21.454;2023-02-10T02:32:16;100080.94;;;-3.90;61.69
62789;BME280;66401;42.016;21.454;2023-02-10T02:34:53;100080.56;;;-4.03;61.55
62789;BME280;66401;42.016;21.454;2023-02-10T02:37:23;100070.13;;;-3.97;61.99
62789;BME280;66401;42.016;21.454;2023-02-10T02:39:53;100063.94;;;-3.90;61.99
62789;BME280;66401;42.016;21.454;2023-02-10T02:42:25;100087.41;;;-3.82;60.75
62789;BME280;66401;42.016;21.454;2023-02-10T02:44:58;100078.22;;;-3.86;61.42
62789;BME280;66401;42.016;21.454;2023-02-10T02:58:48;100085.97;;;-3.67;59.79
62789;BME280;66401;42.016;21.454;2023-02-10T03:01:37;100084.50;;;-3.72;60.83
62789;BME280;66401;42.016;21.454;2023-02-10T03:04:05;100078.56;;;-3.95;61.31
62789;BME280;66401;42.016;21.454;2023-02-10T03:06:31;100084.34;;;-3.91;60.72
62789;BME280;66401;42.016;21.454;2023-02-10T03:08:57;100091.59;;;-3.81;60.08
62789;BME280;66401;42.016;21.454;2023-02-10T03:11:22;100087.88;;;-3.72;60.72
62789;BME280;66401;42.016;21.454;2023-02-10T03:13:48;100088.91;;;-3.76;60.84
62789;BME280;66401;42.016;21.454;2023-02-10T03:16:13;100088.78;;;-3.73;60.38
62789;BME280;66401;42.016;21.454;2023-02-10T03:18:39;100088.78;;;-3.73;59.93
62789;BME280;66401;42.016;21.454;2023-02-10T03:21:05;100088.03;;;-3.77;59.14
62789;BME280;66401;42.016;21.454;2023-02-10T03:23:30;100092.56;;;-3.83;59.80
62789;BME280;66401;42.016;21.454;2023-02-10T03:26:00;100083.06;;;-4.26;60.48
62789;BME280;66401;42.016;21.454;2023-02-10T03:28:25;100091.66;;;-4.29;62.06
62789;BME280;66401;42.016;21.454;2023-02-10T03:30:51;100086.00;;;-4.37;62.16
62789;BME280;66401;42.016;21.454;2023-02-10T03:33:18;100090.38;;;-4.41;62.15
62789;BME280;66401;42.016;21.454;2023-02-10T03:35:44;100084.75;;;-4.50;63.05
62789;BME280;66401;42.016;21.454;2023-02-10T03:38:11;100092.22;;;-4.46;62.01
62789;BME280;66401;42.016;21.454;2023-02-10T03:40:37;100086.09;;;-4.65;62.49
62789;BME280;66401;42.016;21.454;2023-02-10T03:43:03;100078.63;;;-4.45;61.64
62789;BME280;66401;42.016;21.454;2023-02-10T03:45:28;100086.41;;;-4.24;61.04
62789;BME280;66401;42.016;21.454;2023-02-10T03:47:54;100081.53;;;-4.30;61.23
62789;BME280;66401;42.016;21.454;2023-02-10T03:50:20;100090.09;;;-4.33;62.11
62789;BME280;66401;42.016;21.454;2023-02-10T03:52:45;100076.00;;;-4.18;61.78
62789;BME280;66401;42.016;21.454;2023-02-10T03:55:11;100068.94;;;-4.10;60.03
62789;BME280;66401;42.016;21.454;2023-02-10T03:57:40;100071.03;;;-4.21;61.03
62789;BME280;66401;42.016;21.454;2023-02-10T04:00:06;100073.72;;;-4.26;60.81
62789;BME280;66401;42.016;21.454;2023-02-10T04:02:32;100078.28;;;-4.11;61.43
62789;BME280;66401;42.016;21.454;2023-02-10T04:04:57;100079.88;;;-4.08;61.44
62789;BME280;66401;42.016;21.454;2023-02-10T04:07:23;100068.22;;;-4.14;60.76
62789;BME280;66401;42.016;21.454;2023-02-10T04:09:48;100085.03;;;-4.35;61.14
62789;BME280;66401;42.016;21.454;2023-02-10T04:12:14;100084.88;;;-4.53;62.43
62789;BME280;66401;42.016;21.454;2023-02-10T04:14:39;100080.06;;;-4.87;64.17
62789;BME280;66401;42.016;21.454;2023-02-10T04:17:05;100079.34;;;-4.91;64.05
62789;BME280;66401;42.016;21.454;2023-02-10T04:19:30;100090.66;;;-5.00;64.65
62789;BME280;66401;42.016;21.454;2023-02-10T04:21:56;100077.94;;;-5.00;63.29
62789;BME280;66401;42.016;21.454;2023-02-10T04:24:22;100094.94;;;-5.02;63.48
62789;BME280;66401;42.016;21.454;2023-02-10T04:26:47;100086.72;;;-4.83;63.45
62789;BME280;66401;42.016;21.454;2023-02-10T04:29:13;100084.28;;;-4.86;62.91
62789;BME280;66401;42.016;21.454;2023-02-10T04:31:38;100085.63;;;-5.03;63.30
62789;BME280;66401;42.016;21.454;2023-02-10T04:34:04;100083.97;;;-5.04;63.25
62789;BME280;66401;42.016;21.454;2023-02-10T04:36:29;100076.47;;;-5.07;62.51
62789;BME280;66401;42.016;21.454;2023-02-10T04:38:55;100078.28;;;-5.10;62.38
62789;BME280;66401;42.016;21.454;2023-02-10T04:41:20;100087.09;;;-5.21;64.08
62789;BME280;66401;42.016;21.454;2023-02-10T04:43:46;100088.81;;;-5.51;65.54
62789;BME280;66401;42.016;21.454;2023-02-10T04:46:11;100086.00;;;-5.40;65.10
62789;BME280;66401;42.016;21.454;2023-02-10T04:48:37;100089.84;;;-5.28;64.44
62789;BME280;66401;42.016;21.454;2023-02-10T04:51:09;100085.50;;;-5.25;65.08
62789;BME280;66401;42.016;21.454;2023-02-10T04:53:36;100084.72;;;-5.27;63.75
62789;BME280;66401;42.016;21.454;2023-02-10T04:56:02;100093.81;;;-5.20;64.20
62789;BME280;66401;42.016;21.454;2023-02-10T04:58:30;100097.78;;;-5.11;63.50
62789;BME280;66401;42.016;21.454;2023-02-10T05:00:55;100099.63;;;-5.16;65.08
62789;BME280;66401;42.016;21.454;2023-02-10T05:03:21;100099.81;;;-5.22;64.72
62789;BME280;66401;42.016;21.454;2023-02-10T05:05:47;100092.63;;;-5.36;64.11
62789;BME280;66401;42.016;21.454;2023-02-10T05:08:12;100099.81;;;-5.22;65.58
62789;BME280;66401;42.016;21.454;2023-02-10T05:10:38;100095.81;;;-5.03;64.64
62789;BME280;66401;42.016;21.454;2023-02-10T05:13:03;100103.94;;;-4.92;64.42
62789;BME280;66401;42.016;21.454;2023-02-10T05:15:29;100099.03;;;-4.98;63.41
62789;BME280;66401;42.016;21.454;2023-02-10T05:17:54;100106.38;;;-5.15;64.65
62789;BME280;66401;42.016;21.454;2023-02-10T05:20:20;100107.84;;;-5.08;64.16
62789;BME280;66401;42.016;21.454;2023-02-10T05:22:46;100113.38;;;-5.23;64.52
62789;BME280;66401;42.016;21.454;2023-02-10T05:25:11;100112.13;;;-5.36;66.09
62789;BME280;66401;42.016;21.454;2023-02-10T05:27:37;100114.59;;;-5.35;65.32
62789;BME280;66401;42.016;21.454;2023-02-10T05:30:05;100113.09;;;-5.14;64.47
62789;BME280;66401;42.016;21.454;2023-02-10T05:32:31;100106.94;;;-5.33;65.49
62789;BME280;66401;42.016;21.454;2023-02-10T05:34:57;100111.00;;;-5.28;64.55
62789;BME280;66401;42.016;21.454;2023-02-10T05:37:22;100120.06;;;-5.19;63.80
62789;BME280;66401;42.016;21.454;2023-02-10T05:39:48;100116.91;;;-5.27;65.78
62789;BME280;66401;42.016;21.454;2023-02-10T05:42:14;100107.81;;;-5.34;65.34
62789;BME280;66401;42.016;21.454;2023-02-10T05:44:39;100116.47;;;-5.40;65.49
62789;BME280;66401;42.016;21.454;2023-02-10T05:47:05;100113.03;;;-5.39;66.29
62789;BME280;66401;42.016;21.454;2023-02-10T05:49:30;100119.91;;;-5.14;65.58
62789;BME280;66401;42.016;21.454;2023-02-10T05:51:56;100129.00;;;-5.07;64.47
62789;BME280;66401;42.016;21.454;2023-02-10T05:54:21;100131.47;;;-5.06;63.53
62789;BME280;66401;42.016;21.454;2023-02-10T05:56:48;100131.59;;;-4.82;64.04
62789;BME280;66401;42.016;21.454;2023-02-10T05:59:15;100133.97;;;-4.78;62.88
62789;BME280;66401;42.016;21.454;2023-02-10T06:01:42;100144.00;;;-4.73;64.01
62789;BME280;66401;42.016;21.454;2023-02-10T06:04:07;100141.94;;;-4.62;63.79
62789;BME280;66401;42.016;21.454;2023-02-10T06:06:33;100146.06;;;-4.33;61.85
62789;BME280;66401;42.016;21.454;2023-02-10T06:08:58;100152.56;;;-4.24;60.49
62789;BME280;66401;42.016;21.454;2023-02-10T06:11:24;100140.50;;;-4.19;60.75
62789;BME280;66401;42.016;21.454;2023-02-10T06:13:49;100141.94;;;-4.12;59.95
62789;BME280;66401;42.016;21.454;2023-02-10T06:16:15;100140.38;;;-4.16;60.59
62789;BME280;66401;42.016;21.454;2023-02-10T06:18:40;100153.47;;;-4.02;60.63
62789;BME280;66401;42.016;21.454;2023-02-10T06:21:07;100156.84;;;-4.01;61.35
62789;BME280;66401;42.016;21.454;2023-02-10T06:23:34;100145.16;;;-4.07;60.37
62789;BME280;66401;42.016;21.454;2023-02-10T06:26:00;100154.22;;;-4.23;61.62
62789;BME280;66401;42.016;21.454;2023-02-10T06:28:26;100151.91;;;-4.06;61.89
62789;BME280;66401;42.016;21.454;2023-02-10T06:30:53;100170.84;;;-4.13;61.85
62789;BME280;66401;42.016;21.454;2023-02-10T06:33:19;100172.69;;;-4.18;62.91
62789;BME280;66401;42.016;21.454;2023-02-10T06:35:45;100172.50;;;-4.12;62.33
62789;BME280;66401;42.016;21.454;2023-02-10T06:38:11;100167.72;;;-3.98;61.42
62789;BME280;66401;42.016;21.454;2023-02-10T06:40:36;100173.41;;;-3.90;61.49
62789;BME280;66401;42.016;21.454;2023-02-10T06:43:02;100170.19;;;-3.71;60.01
62789;BME280;66401;42.016;21.454;2023-02-10T06:45:28;100166.53;;;-3.88;60.77
62789;BME280;66401;42.016;21.454;2023-02-10T06:47:54;100173.19;;;-3.84;61.73
62789;BME280;66401;42.016;21.454;2023-02-10T06:50:20;100174.53;;;-3.73;62.08
62789;BME280;66401;42.016;21.454;2023-02-10T06:52:46;100173.94;;;-3.58;61.98
62789;BME280;66401;42.016;21.454;2023-02-10T06:55:12;100178.97;;;-3.55;61.54
62789;BME280;66401;42.016;21.454;2023-02-10T06:57:37;100182.97;;;-3.50;61.06
62789;BME280;66401;42.016;21.454;2023-02-10T07:00:07;100178.97;;;-3.33;60.10
62789;BME280;66401;42.016;21.454;2023-02-10T07:02:34;100168.50;;;-3.26;59.95
62789;BME280;66401;42.016;21.454;2023-02-10T07:04:59;100170.09;;;-3.23;60.60
62789;BME280;66401;42.016;21.454;2023-02-10T07:07:25;100173.81;;;-3.08;58.86
62789;BME280;66401;42.016;21.454;2023-02-10T07:09:51;100173.31;;;-2.96;59.95
62789;BME280;66401;42.016;21.454;2023-02-10T07:12:19;100178.47;;;-2.76;58.67
62789;BME280;66401;42.016;21.454;2023-02-10T07:14:44;100184.56;;;-2.80;58.69
62789;BME280;66401;42.016;21.454;2023-02-10T07:17:10;100186.25;;;-2.79;58.82
62789;BME280;66401;42.016;21.454;2023-02-10T07:19:35;100174.88;;;-2.72;58.97
62789;BME280;66401;42.016;21.454;2023-02-10T07:22:01;100179.53;;;-2.39;58.46
62789;BME280;66401;42.016;21.454;2023-02-10T07:24:30;100185.03;;;-2.28;57.27
62789;BME280;66401;42.016;21.454;2023-02-10T07:26:56;100188.16;;;-2.21;57.75
62789;BME280;66401;42.016;21.454;2023-02-10T07:29:22;100193.69;;;-2.12;56.80
62789;BME280;66401;42.016;21.454;2023-02-10T07:31:47;100193.69;;;-2.12;57.24
62789;BME280;66401;42.016;21.454;2023-02-10T07:34:13;100185.69;;;-2.04;56.46
62789;BME280;66401;42.016;21.454;2023-02-10T07:36:38;100190.34;;;-1.73;55.43
62789;BME280;66401;42.016;21.454;2023-02-10T07:39:04;100183.22;;;-1.29;54.74
62789;BME280;66401;42.016;21.454;2023-02-10T07:41:29;100182.84;;;-0.83;53.50
62789;BME280;66401;42.016;21.454;2023-02-10T07:43:55;100178.63;;;-0.33;52.82
62789;BME280;66401;42.016;21.454;2023-02-10T07:46:20;100172.66;;;0.35;50.97
62789;BME280;66401;42.016;21.454;2023-02-10T07:48:46;100189.69;;;2.05;46.28
62789;BME280;66401;42.016;21.454;2023-02-10T07:51:12;100183.00;;;3.40;43.26
62789;BME280;66401;42.016;21.454;2023-02-10T07:53:37;100180.63;;;4.27;40.82
62789;BME280;66401;42.016;21.454;2023-02-10T07:56:04;100184.13;;;5.12;37.78
62789;BME280;66401;42.016;21.454;2023-02-10T07:58:30;100189.28;;;5.83;37.47
62789;BME280;66401;42.016;21.454;2023-02-10T08:00:56;100178.78;;;6.08;36.22
62789;BME280;66401;42.016;21.454;2023-02-10T08:03:21;100187.97;;;5.31;37.81
62789;BME280;66401;42.016;21.454;2023-02-10T08:05:47;100190.09;;;6.18;35.10
62789;BME280;66401;42.016;21.454;2023-02-10T08:08:15;100191.16;;;7.04;34.32
62789;BME280;66401;42.016;21.454;2023-02-10T08:10:41;100192.66;;;7.17;33.90
62789;BME280;66401;42.016;21.454;2023-02-10T08:13:07;100182.38;;;6.84;34.47
62789;BME280;66401;42.016;21.454;2023-02-10T08:15:33;100180.22;;;7.85;32.11
62789;BME280;66401;42.016;21.454;2023-02-10T08:17:59;100186.06;;;8.08;32.83
62789;BME280;66401;42.016;21.454;2023-02-10T08:20:28;100176.84;;;9.15;30.26
62789;BME280;66401;42.016;21.454;2023-02-10T08:22:57;100178.09;;;9.11;30.84
62789;BME280;66401;42.016;21.454;2023-02-10T08:25:23;100178.19;;;8.19;30.67
62789;BME280;66401;42.016;21.454;2023-02-10T08:27:49;100188.69;;;7.66;31.91
62789;BME280;66401;42.016;21.454;2023-02-10T08:30:15;100169.78;;;9.36;30.74
62789;BME280;66401;42.016;21.454;2023-02-10T08:32:41;100182.75;;;8.57;31.65
62789;BME280;66401;42.016;21.454;2023-02-10T08:35:07;100181.66;;;11.60;26.24
62789;BME280;66401;42.016;21.454;2023-02-10T08:37:32;100187.81;;;9.28;29.98
62789;BME280;66401;42.016;21.454;2023-02-10T08:39:58;100184.44;;;10.78;27.67
62789;BME280;66401;42.016;21.454;2023-02-10T08:42:24;100173.28;;;13.27;24.68
62789;BME280;66401;42.016;21.454;2023-02-10T08:44:50;100180.84;;;9.67;29.45
62789;BME280;66401;42.016;21.454;2023-02-10T08:47:15;100177.25;;;9.78;28.96
62789;BME280;66401;42.016;21.454;2023-02-10T08:49:42;100179.81;;;10.72;27.98
62789;BME280;66401;42.016;21.454;2023-02-10T08:52:08;100177.50;;;13.20;25.36
62789;BME280;66401;42.016;21.454;2023-02-10T08:54:33;100158.94;;;11.79;24.86
62789;BME280;66401;42.016;21.454;2023-02-10T08:56:59;100173.09;;;15.11;21.24
62789;BME280;66401;42.016;21.454;2023-02-10T08:59:25;100174.91;;;16.09;21.09
62789;BME280;66401;42.016;21.454;2023-02-10T09:01:51;100179.31;;;13.28;23.37
62789;BME280;66401;42.016;21.454;2023-02-10T09:04:17;100176.88;;;15.78;21.52
62789;BME280;66401;42.016;21.454;2023-02-10T09:06:43;100173.63;;;15.76;21.00
62789;BME280;66401;42.016;21.454;2023-02-10T09:09:14;100167.66;;;17.56;18.45
62789;BME280;66401;42.016;21.454;2023-02-10T09:11:40;100171.34;;;19.26;16.92
62789;BME280;66401;42.016;21.454;2023-02-10T09:14:06;100166.03;;;17.76;18.40
62789;BME280;66401;42.016;21.454;2023-02-10T09:16:33;100163.63;;;17.32;18.18
62789;BME280;66401;42.016;21.454;2023-02-10T09:18:58;100163.25;;;16.77;18.16
62789;BME280;66401;42.016;21.454;2023-02-10T09:21:24;100162.72;;;17.95;18.05
62789;BME280;66401;42.016;21.454;2023-02-10T09:23:51;100160.41;;;16.94;18.53
62789;BME280;66401;42.016;21.454;2023-02-10T09:26:17;100161.38;;;16.56;18.42
62789;BME280;66401;42.016;21.454;2023-02-10T09:28:43;100161.00;;;13.60;22.25
62789;BME280;66401;42.016;21.454;2023-02-10T09:31:09;100159.75;;;18.12;18.04
62789;BME280;66401;42.016;21.454;2023-02-10T09:33:36;100164.06;;;19.81;16.46
62789;BME280;66401;42.016;21.454;2023-02-10T09:36:03;100162.53;;;17.26;19.10
62789;BME280;66401;42.016;21.454;2023-02-10T09:38:30;100164.13;;;16.99;18.91
62789;BME280;66401;42.016;21.454;2023-02-10T09:47:00;100149.38;;;23.69;13.62
62789;BME280;66401;42.016;21.454;2023-02-10T09:54:38;100146.34;;;16.86;19.56
62789;BME280;66401;42.016;21.454;2023-02-10T09:57:08;100133.81;;;18.56;17.25
62789;BME280;66401;42.016;21.454;2023-02-10T09:59:37;100128.97;;;17.28;18.37
62789;BME280;66401;42.016;21.454;2023-02-10T10:02:13;100122.16;;;15.66;19.48
62789;BME280;66401;42.016;21.454;2023-02-10T10:04:43;100107.50;;;16.52;19.27
62789;BME280;66401;42.016;21.454;2023-02-10T10:09:46;100107.94;;;19.06;17.14
62789;BME280;66401;42.016;21.454;2023-02-10T10:12:17;100110.97;;;22.59;13.92
62789;BME280;66401;42.016;21.454;2023-02-10T10:14:44;100117.91;;;23.78;12.83
62789;BME280;66401;42.016;21.454;2023-02-10T10:30:51;100082.75;;;19.63;16.04
62789;BME280;66401;42.016;21.454;2023-02-10T10:33:38;100077.63;;;21.34;13.49
62789;BME280;66401;42.016;21.454;2023-02-10T10:36:06;100078.88;;;22.90;13.51
62789;BME280;66401;42.016;21.454;2023-02-10T10:38:42;100079.00;;;21.80;13.62
62789;BME280;66401;42.016;21.454;2023-02-10T10:41:11;100067.47;;;23.25;13.24
62789;BME280;66401;42.016;21.454;2023-02-10T10:43:47;100062.41;;;21.23;14.71
62789;BME280;66401;42.016;21.454;2023-02-10T10:46:25;100055.75;;;20.13;15.50
62789;BME280;66401;42.016;21.454;2023-02-10T10:48:52;100057.97;;;18.98;15.68
62789;BME280;66401;42.016;21.454;2023-02-10T10:51:18;100052.34;;;21.07;14.38
62789;BME280;66401;42.016;21.454;2023-02-10T10:53:47;100051.97;;;22.98;13.97
62789;BME280;66401;42.016;21.454;2023-02-10T11:01:50;100032.91;;;19.73;15.29
62789;BME280;66401;42.016;21.454;2023-02-10T11:04:25;100016.72;;;18.97;16.53
62789;BME280;66401;42.016;21.454;2023-02-10T11:06:56;100012.03;;;21.05;14.46
62789;BME280;66401;42.016;21.454;2023-02-10T11:09:24;100017.19;;;16.09;17.74
62789;BME280;66401;42.016;21.454;2023-02-10T11:11:53;100010.44;;;15.70;18.27
62789;BME280;66401;42.016;21.454;2023-02-10T11:14:25;100006.78;;;19.06;16.41
62789;BME280;66401;42.016;21.454;2023-02-10T11:16:57;100007.81;;;20.97;14.60
62789;BME280;66401;42.016;21.454;2023-02-10T11:19:31;100007.38;;;22.89;13.80
62789;BME280;66401;42.016;21.454;2023-02-10T11:21:58;100000.00;;;19.69;14.83
62789;BME280;66401;42.016;21.454;2023-02-10T11:24:29;100003.97;;;19.85;16.14
62789;BME280;66401;42.016;21.454;2023-02-10T11:29:33;99981.97;;;20.93;14.48
62789;BME280;66401;42.016;21.454;2023-02-10T11:31:59;99975.41;;;21.93;13.78
62789;BME280;66401;42.016;21.454;2023-02-10T11:34:31;99970.34;;;22.75;13.30
62789;BME280;66401;42.016;21.454;2023-02-10T11:37:08;99962.31;;;21.25;14.47
62789;BME280;66401;42.016;21.454;2023-02-10T11:39:44;99956.91;;;24.04;12.42
62789;BME280;66401;42.016;21.454;2023-02-10T11:42:34;99947.81;;;24.62;11.91
62789;BME280;66401;42.016;21.454;2023-02-10T11:47:35;99950.56;;;23.53;12.37
62789;BME280;66401;42.016;21.454;2023-02-10T11:50:04;99953.25;;;22.60;12.71
62789;BME280;66401;42.016;21.454;2023-02-10T11:52:41;99938.38;;;19.69;14.68
62789;BME280;66401;42.016;21.454;2023-02-10T11:55:11;99931.22;;;18.58;15.32
62789;BME280;66401;42.016;21.454;2023-02-10T11:57:48;99946.22;;;18.38;15.05
62789;BME280;66401;42.016;21.454;2023-02-10T12:01:02;99943.19;;;16.98;16.78
62789;BME280;66401;42.016;21.454;2023-02-10T12:03:46;99938.63;;;17.48;17.05
62789;BME280;66401;42.016;21.454;2023-02-10T12:17:32;99923.25;;;19.25;15.77
62789;BME280;66401;42.016;21.454;2023-02-10T12:23:11;99917.44;;;18.76;15.60
62789;BME280;66401;42.016;21.454;2023-02-10T12:28:33;99911.28;;;16.58;17.11
62789;BME280;66401;42.016;21.454;2023-02-10T12:31:17;99914.94;;;18.22;15.48
62789;BME280;66401;42.016;21.454;2023-02-10T12:37:16;99897.41;;;17.74;17.05
62789;BME280;66401;42.016;21.454;2023-02-10T12:40:12;99885.31;;;18.07;16.23
62789;BME280;66401;42.016;21.454;2023-02-10T12:53:40;99886.16;;;13.83;20.67
62789;BME280;66401;42.016;21.454;2023-02-10T12:56:27;99886.00;;;14.30;20.50
62789;BME280;66401;42.016;21.454;2023-02-10T12:59:01;99886.50;;;13.80;20.70
62789;BME280;66401;42.016;21.454;2023-02-10T13:01:31;99875.72;;;13.44;21.85
62789;BME280;66401;42.016;21.454;2023-02-10T13:04:21;99876.81;;;14.87;20.63
62789;BME280;66401;42.016;21.454;2023-02-10T13:07:00;99864.91;;;12.92;22.09
62789;BME280;66401;42.016;21.454;2023-02-10T13:09:34;99877.13;;;13.15;21.92
62789;BME280;66401;42.016;21.454;2023-02-10T13:12:33;99877.97;;;12.92;21.66
62789;BME280;66401;42.016;21.454;2023-02-10T13:15:12;99873.84;;;13.13;21.99
62789;BME280;66401;42.016;21.454;2023-02-10T13:17:45;99865.34;;;13.11;22.28
62789;BME280;66401;42.016;21.454;2023-02-10T13:22:55;99886.16;;;12.88;22.87
62789;BME280;66401;42.016;21.454;2023-02-10T13:28:17;99876.78;;;11.64;23.51
62789;BME280;66401;42.016;21.454;2023-02-10T13:36:27;99881.94;;;11.05;24.11
62789;BME280;66401;42.016;21.454;2023-02-10T13:39:00;99880.47;;;9.97;26.12
62789;BME280;66401;42.016;21.454;2023-02-10T13:41:32;99878.91;;;10.04;25.78
62789;BME280;66401;42.016;21.454;2023-02-10T13:44:25;99870.75;;;10.35;25.51
62789;BME280;66401;42.016;21.454;2023-02-10T13:49:59;99869.28;;;11.10;24.66
62789;BME280;66401;42.016;21.454;2023-02-10T13:52:33;99873.97;;;11.41;24.85
62789;BME280;66401;42.016;21.454;2023-02-10T13:57:37;99878.00;;;11.86;23.37
62789;BME280;66401;42.016;21.454;2023-02-10T14:02:41;99871.38;;;10.81;25.59
62789;BME280;66401;42.016;21.454;2023-02-10T14:05:33;99868.63;;;10.82;25.12
62789;BME280;66401;42.016;21.454;2023-02-10T14:08:00;99869.81;;;11.22;25.67
62789;BME280;66401;42.016;21.454;2023-02-10T14:10:36;99876.16;;;11.70;24.12
62789;BME280;66401;42.016;21.454;2023-02-10T14:13:05;99877.81;;;10.69;25.51
62789;BME280;66401;42.016;21.454;2023-02-10T14:15:39;99860.63;;;11.10;25.40
62789;BME280;66401;42.016;21.454;2023-02-10T14:18:27;99871.63;;;10.26;25.32
62789;BME280;66401;42.016;21.454;2023-02-10T14:21:00;99868.41;;;9.96;26.28
62789;BME280;66401;42.016;21.454;2023-02-10T14:23:29;99866.56;;;10.07;26.02
62789;BME280;66401;42.016;21.454;2023-02-10T14:25:57;99865.06;;;9.86;26.81
62789;BME280;66401;42.016;21.454;2023-02-10T14:28:28;99864.03;;;10.15;26.46
62789;BME280;66401;42.016;21.454;2023-02-10T14:30:57;99855.38;;;10.32;26.38
62789;BME280;66401;42.016;21.454;2023-02-10T14:33:29;99861.94;;;10.00;26.70
62789;BME280;66401;42.016;21.454;2023-02-10T14:35:58;99858.66;;;9.98;27.24
62789;BME280;66401;42.016;21.454;2023-02-10T14:38:29;99857.94;;;9.88;26.72
62789;BME280;66401;42.016;21.454;2023-02-10T14:40:57;99856.84;;;9.63;27.54
62789;BME280;66401;42.016;21.454;2023-02-10T14:43:26;99850.16;;;9.61;27.23
62789;BME280;66401;42.016;21.454;2023-02-10T14:45:53;99853.78;;;9.50;27.95
62789;BME280;66401;42.016;21.454;2023-02-10T14:48:21;99863.47;;;9.58;27.31